Anderson, Alabama
Current Conditions -  °F | °C
As of 2:53 PM on Friday 24 Oct 2014 (Local Time) from KMSL Reporting Station
Clear Clear  
Wind Chill: 75°   Ceiling: Unl
Heat Index: 75°   Visibility: 10mi
Dew Point: 36°   Wind: 6mph
Humidity: 24%   Direction: 310°NW
Pressure: 30.08"   Gusts: NA
Location:  34.93°N, 87.27°W
Report Text: KMSL 241953Z AUTO 31005KT 10SM CLR 24/02 A3008 RMK AO2 SLP182 T02390022
Loading
Personal Weather Stations






























Interactive Weather Map
Tropical Storm Tracking
New forecast layout! Learn more

10-Day Weather Forecast

Advertisements
Track Severe Weather on mobile